Time;durP1;ratioP1;P1;durP2;ratioP2;P2;SDS_P1;SDS_P2;PMS_P1;PMS_P2;Temp;Humidity;BMP_temperature;BMP_pressure;BME280_temperature;BME280_humidity;BME280_pressure;Samples;Min_cycle;Max_cycle;Signal;HPM_P1;HPM_P2
2023/03/06 00:02:03;;;;;;;20.60;10.80;;;;;;;;;;4899603;29;20892;-79
2023/03/06 00:04:30;;;;;;;23.17;9.80;;;;;;;;;;4899044;29;20541;-77
2023/03/06 00:06:58;;;;;;;19.23;9.53;;;;;;;;;;4897870;29;20552;-77
2023/03/06 00:09:25;;;;;;;16.70;10.90;;;;;;;;;;4899036;29;20449;-80
2023/03/06 00:11:52;;;;;;;15.93;9.23;;;;;;;;;;4898348;29;20463;-78
2023/03/06 00:14:19;;;;;;;22.93;10.37;;;;;;;;;;4898143;29;20548;-78
2023/03/06 00:16:46;;;;;;;17.53;9.77;;;;;;;;;;4898057;29;20463;-77
2023/03/06 00:19:15;;;;;;;20.40;11.07;;;;;;;;;;4898788;29;20473;-77
2023/03/06 00:21:42;;;;;;;20.73;10.30;;;;;;;;;;4896903;29;20468;-77
2023/03/06 00:24:09;;;;;;;17.87;10.90;;;;;;;;;;4898233;29;20929;-77
2023/03/06 00:26:36;;;;;;;20.13;11.83;;;;;;;;;;4896936;29;20540;-77
2023/03/06 00:29:03;;;;;;;17.03;11.20;;;;;;;;;;4896001;29;20552;-76
2023/03/06 00:31:30;;;;;;;19.20;9.57;;;;;;;;;;4896215;29;20468;-75
2023/03/06 00:33:57;;;;;;;19.60;10.30;;;;;;;;;;4896653;29;20976;-76
2023/03/06 00:36:26;;;;;;;26.43;12.27;;;;;;;;;;4896611;29;20836;-76
2023/03/06 00:38:53;;;;;;;27.10;13.80;;;;;;;;;;4895014;29;20456;-75
2023/03/06 00:41:20;;;;;;;19.07;9.30;;;;;;;;;;4895773;29;20468;-76
2023/03/06 00:43:47;;;;;;;24.83;11.30;;;;;;;;;;4895615;29;20505;-77
2023/03/06 00:46:14;;;;;;;23.90;11.97;;;;;;;;;;4895903;29;21096;-76
2023/03/06 00:48:42;;;;;;;22.27;12.17;;;;;;;;;;4895864;29;20460;-76
2023/03/06 00:51:09;;;;;;;21.50;10.23;;;;;;;;;;4895863;29;20450;-77
2023/03/06 00:53:37;;;;;;;15.67;10.07;;;;;;;;;;4895240;29;20468;-75
2023/03/06 00:56:05;;;;;;;27.03;11.93;;;;;;;;;;4894506;29;21188;-76
2023/03/06 00:58:32;;;;;;;20.87;9.67;;;;;;;;;;4896025;29;20516;-76
2023/03/06 01:00:59;;;;;;;19.10;9.60;;;;;;;;;;4897313;29;20564;-76
2023/03/06 01:03:26;;;;;;;18.00;10.33;;;;;;;;;;4895610;29;20493;-76
2023/03/06 01:05:53;;;;;;;17.53;9.87;;;;;;;;;;4879803;29;20463;-76
2023/03/06 01:08:20;;;;;;;18.60;10.27;;;;;;;;;;4880271;29;20466;-75
2023/03/06 01:10:49;;;;;;;19.53;10.60;;;;;;;;;;4897603;29;20456;-76
2023/03/06 01:13:16;;;;;;;17.63;9.77;;;;;;;;;;4896824;29;20476;-75
2023/03/06 01:15:43;;;;;;;13.57;8.60;;;;;;;;;;4897763;29;20480;-77
2023/03/06 01:18:10;;;;;;;18.53;9.27;;;;;;;;;;4899223;29;20512;-76
2023/03/06 01:20:37;;;;;;;18.80;9.63;;;;;;;;;;4900247;29;20491;-75
2023/03/06 01:23:04;;;;;;;22.53;9.53;;;;;;;;;;4900754;29;20485;-76
2023/03/06 01:25:31;;;;;;;22.27;10.93;;;;;;;;;;4899102;29;20456;-76
2023/03/06 01:28:00;;;;;;;14.97;8.50;;;;;;;;;;4897819;29;20496;-75
2023/03/06 01:30:28;;;;;;;15.03;10.43;;;;;;;;;;4895293;29;21015;-76
2023/03/06 01:32:55;;;;;;;18.03;9.20;;;;;;;;;;4895532;29;20460;-78
2023/03/06 01:35:22;;;;;;;18.50;9.10;;;;;;;;;;4895602;29;21220;-76
2023/03/06 01:37:50;;;;;;;19.30;9.73;;;;;;;;;;4896096;29;20544;-76
2023/03/06 01:40:17;;;;;;;14.63;8.50;;;;;;;;;;4895485;29;20453;-76
2023/03/06 01:42:44;;;;;;;21.73;9.80;;;;;;;;;;4894701;29;20485;-76
2023/03/06 01:45:26;;;;;;;15.30;8.50;;;;;;;;;;4895725;29;20445;-76
2023/03/06 01:47:55;;;;;;;18.93;9.07;;;;;;;;;;4893681;29;20488;-76
2023/03/06 01:50:22;;;;;;;14.00;8.57;;;;;;;;;;4896898;29;20462;-76
2023/03/06 01:52:51;;;;;;;15.50;8.93;;;;;;;;;;4897356;29;20453;-75
2023/03/06 01:55:20;;;;;;;15.80;8.43;;;;;;;;;;4896244;29;20982;-75
2023/03/06 01:57:48;;;;;;;19.37;9.13;;;;;;;;;;4896656;29;20470;-78
2023/03/06 02:00:16;;;;;;;16.93;8.53;;;;;;;;;;4895846;29;20512;-76
2023/03/06 02:02:45;;;;;;;16.53;10.27;;;;;;;;;;4895352;29;20461;-76
2023/03/06 02:05:13;;;;;;;17.07;10.10;;;;;;;;;;4894054;29;20497;-76
2023/03/06 02:07:42;;;;;;;16.37;8.17;;;;;;;;;;4894915;29;20470;-76
2023/03/06 02:10:09;;;;;;;22.40;9.60;;;;;;;;;;4894641;29;20453;-76
2023/03/06 02:12:36;;;;;;;20.10;10.63;;;;;;;;;;4894659;29;20453;-76
2023/03/06 02:15:04;;;;;;;20.03;9.60;;;;;;;;;;4894307;29;20862;-76
2023/03/06 02:17:31;;;;;;;18.10;9.83;;;;;;;;;;4895075;29;20468;-76
2023/03/06 02:20:01;;;;;;;22.47;10.80;;;;;;;;;;4893943;29;20501;-75
2023/03/06 02:22:33;;;;;;;18.20;9.80;;;;;;;;;;4895676;29;20464;-77
2023/03/06 02:25:04;;;;;;;21.23;10.73;;;;;;;;;;4894818;29;20496;-76
2023/03/06 02:27:33;;;;;;;22.47;10.03;;;;;;;;;;4895095;29;20948;-75
2023/03/06 02:30:00;;;;;;;21.80;10.97;;;;;;;;;;4895104;29;20458;-75
2023/03/06 02:32:27;;;;;;;18.30;9.07;;;;;;;;;;4895607;29;20536;-76
2023/03/06 02:34:56;;;;;;;25.47;9.27;;;;;;;;;;4894339;29;20463;-76
2023/03/06 02:37:24;;;;;;;21.63;9.43;;;;;;;;;;4895205;29;20541;-77
2023/03/06 02:39:55;;;;;;;17.10;9.90;;;;;;;;;;4894805;29;21067;-76
2023/03/06 02:42:23;;;;;;;17.03;8.53;;;;;;;;;;4894137;29;20459;-76
2023/03/06 02:44:51;;;;;;;24.53;11.17;;;;;;;;;;4895612;29;20490;-77
2023/03/06 02:47:19;;;;;;;19.27;11.43;;;;;;;;;;4895978;29;20932;-78
2023/03/06 02:49:46;;;;;;;20.77;9.33;;;;;;;;;;4895564;29;20441;-75
2023/03/06 02:52:13;;;;;;;17.83;9.37;;;;;;;;;;4894550;29;20465;-76
2023/03/06 02:54:41;;;;;;;20.40;11.07;;;;;;;;;;4895522;29;20966;-77
2023/03/06 02:57:08;;;;;;;18.80;10.43;;;;;;;;;;4895911;29;20453;-77
2023/03/06 02:59:35;;;;;;;15.57;8.47;;;;;;;;;;4896305;29;20466;-76
2023/03/06 03:02:04;;;;;;;17.27;9.10;;;;;;;;;;4895026;29;20821;-77
2023/03/06 03:04:31;;;;;;;17.87;8.90;;;;;;;;;;4895480;29;20496;-76
2023/03/06 03:06:58;;;;;;;19.83;9.73;;;;;;;;;;4898062;29;20990;-77
2023/03/06 03:09:26;;;;;;;20.93;10.03;;;;;;;;;;4899530;29;20451;-79
2023/03/06 03:11:53;;;;;;;18.50;9.53;;;;;;;;;;4898745;29;20964;-78
2023/03/06 03:14:20;;;;;;;16.33;9.70;;;;;;;;;;4899138;29;20455;-78
2023/03/06 03:16:47;;;;;;;23.77;10.50;;;;;;;;;;4899244;29;21031;-78
2023/03/06 03:19:16;;;;;;;21.30;10.10;;;;;;;;;;4899818;29;20809;-77
2023/03/06 03:21:43;;;;;;;20.27;10.27;;;;;;;;;;4898660;29;20555;-75
2023/03/06 03:24:10;;;;;;;20.90;12.13;;;;;;;;;;4898920;29;20489;-77
2023/03/06 03:26:37;;;;;;;24.17;10.63;;;;;;;;;;4897529;29;20477;-77
2023/03/06 03:29:04;;;;;;;23.30;10.47;;;;;;;;;;4898456;29;20445;-75
2023/03/06 03:31:32;;;;;;;21.10;9.97;;;;;;;;;;4898050;29;20448;-76
2023/03/06 03:33:59;;;;;;;18.87;9.97;;;;;;;;;;4897786;29;20450;-77
2023/03/06 03:36:27;;;;;;;24.03;11.50;;;;;;;;;;4898237;29;20460;-76
2023/03/06 03:38:56;;;;;;;17.63;9.10;;;;;;;;;;4898085;29;20441;-79
2023/03/06 03:41:23;;;;;;;22.90;10.30;;;;;;;;;;4898691;29;20824;-78
2023/03/06 03:43:51;;;;;;;18.07;10.03;;;;;;;;;;4897375;29;20496;-76
2023/03/06 03:46:20;;;;;;;16.07;9.40;;;;;;;;;;4899373;29;20532;-77
2023/03/06 03:48:47;;;;;;;26.40;10.93;;;;;;;;;;4898873;29;20461;-77
2023/03/06 03:51:15;;;;;;;24.13;10.33;;;;;;;;;;4899142;29;20453;-78
2023/03/06 03:53:44;;;;;;;17.60;9.27;;;;;;;;;;4899112;29;20456;-77
2023/03/06 03:56:12;;;;;;;16.13;9.70;;;;;;;;;;4899776;29;20456;-78
2023/03/06 03:58:39;;;;;;;26.00;10.37;;;;;;;;;;4898328;29;20473;-78
2023/03/06 04:01:06;;;;;;;20.03;11.23;;;;;;;;;;4899133;29;20471;-77
2023/03/06 04:03:34;;;;;;;20.93;8.70;;;;;;;;;;4899365;29;20457;-76
2023/03/06 04:06:01;;;;;;;24.50;12.00;;;;;;;;;;4899105;29;20461;-81
2023/03/06 04:08:28;;;;;;;16.77;10.67;;;;;;;;;;4900018;29;20456;-81
2023/03/06 04:10:57;;;;;;;21.50;10.43;;;;;;;;;;4899370;29;20471;-78
2023/03/06 04:13:24;;;;;;;22.17;9.83;;;;;;;;;;4899478;29;20828;-78
2023/03/06 04:15:52;;;;;;;24.17;11.60;;;;;;;;;;4901079;29;20466;-79
2023/03/06 04:18:19;;;;;;;24.70;10.23;;;;;;;;;;4902675;29;20473;-77
2023/03/06 04:20:47;;;;;;;23.53;10.83;;;;;;;;;;4901522;29;20520;-78
2023/03/06 04:23:14;;;;;;;16.00;8.40;;;;;;;;;;4904097;29;20545;-79
2023/03/06 04:25:41;;;;;;;13.43;9.03;;;;;;;;;;4904308;29;20588;-78
2023/03/06 04:28:10;;;;;;;21.37;10.40;;;;;;;;;;4904490;29;20471;-78
2023/03/06 04:30:38;;;;;;;19.40;9.43;;;;;;;;;;4905468;29;20485;-79
2023/03/06 04:33:05;;;;;;;22.97;10.80;;;;;;;;;;4903474;29;20552;-77
2023/03/06 04:35:32;;;;;;;20.23;10.47;;;;;;;;;;4901432;29;20475;-78
2023/03/06 04:37:59;;;;;;;20.30;9.10;;;;;;;;;;4899584;29;20963;-77
2023/03/06 04:40:28;;;;;;;18.33;9.50;;;;;;;;;;4898607;29;20507;-79
2023/03/06 04:42:55;;;;;;;19.60;9.20;;;;;;;;;;4898977;29;20501;-77
2023/03/06 04:45:23;;;;;;;16.93;9.20;;;;;;;;;;4899437;29;20499;-78
2023/03/06 04:47:51;;;;;;;22.53;9.30;;;;;;;;;;4901738;29;20469;-77
2023/03/06 04:50:18;;;;;;;19.20;9.17;;;;;;;;;;4902485;29;20452;-79
2023/03/06 04:52:46;;;;;;;21.40;9.90;;;;;;;;;;4904098;29;20615;-77
2023/03/06 04:55:14;;;;;;;18.00;8.67;;;;;;;;;;4901326;29;20584;-80
2023/03/06 04:57:42;;;;;;;21.40;10.30;;;;;;;;;;4903094;29;20460;-78
2023/03/06 05:00:11;;;;;;;18.07;9.40;;;;;;;;;;4901486;29;20525;-78
2023/03/06 05:02:39;;;;;;;16.30;8.80;;;;;;;;;;4899908;29;20505;-77
2023/03/06 05:05:07;;;;;;;17.80;9.13;;;;;;;;;;4900102;29;20495;-80
2023/03/06 05:07:34;;;;;;;20.33;10.03;;;;;;;;;;4900192;29;20458;-77
2023/03/06 05:10:01;;;;;;;21.37;10.50;;;;;;;;;;4898708;29;20511;-78
2023/03/06 05:12:28;;;;;;;23.67;9.50;;;;;;;;;;4897791;29;20462;-80
2023/03/06 05:14:55;;;;;;;18.00;10.10;;;;;;;;;;4897070;29;20452;-77
2023/03/06 05:17:22;;;;;;;20.83;9.20;;;;;;;;;;4897978;29;20462;-80
2023/03/06 05:19:51;;;;;;;19.40;10.93;;;;;;;;;;4897504;29;20495;-80
2023/03/06 05:22:18;;;;;;;21.80;9.50;;;;;;;;;;4896140;29;21038;-79
2023/03/06 05:24:45;;;;;;;18.83;9.20;;;;;;;;;;4896314;29;20495;-78
2023/03/06 05:27:12;;;;;;;22.13;10.20;;;;;;;;;;4895732;29;20481;-78
2023/03/06 05:29:40;;;;;;;16.83;10.20;;;;;;;;;;4895817;29;20931;-77
2023/03/06 05:32:07;;;;;;;15.73;8.40;;;;;;;;;;4895995;29;20457;-79
2023/03/06 05:34:34;;;;;;;14.47;8.20;;;;;;;;;;4896234;29;20456;-78
2023/03/06 05:37:03;;;;;;;15.17;9.17;;;;;;;;;;4896713;29;20465;-75
2023/03/06 05:39:30;;;;;;;15.97;9.27;;;;;;;;;;4894962;29;20464;-78
2023/03/06 05:41:58;;;;;;;16.40;8.90;;;;;;;;;;4896147;29;20496;-76
2023/03/06 05:44:25;;;;;;;17.60;8.00;;;;;;;;;;4899336;29;20512;-78
2023/03/06 05:46:53;;;;;;;19.83;8.37;;;;;;;;;;4905833;29;20473;-82
2023/03/06 05:49:20;;;;;;;20.20;9.40;;;;;;;;;;5233319;23;20501;-77
2023/03/06 06:04:51;;;;;;;13.80;7.93;;;;;;;;;;5273694;23;21142;-81
2023/03/06 06:07:18;;;;;;;23.53;9.50;;;;;;;;;;4955776;29;20456;-80
2023/03/06 06:09:45;;;;;;;13.03;8.90;;;;;;;;;;4960038;29;20458;-82
2023/03/06 06:12:13;;;;;;;22.57;10.27;;;;;;;;;;4976354;28;20430;-81
2023/03/06 06:14:40;;;;;;;17.53;9.03;;;;;;;;;;4977968;28;20485;-81
2023/03/06 06:17:08;;;;;;;21.53;9.50;;;;;;;;;;4975407;28;20481;-82
2023/03/06 06:22:12;;;;;;;21.70;9.73;;;;;;;;;;5208392;23;20498;-79
2023/03/06 06:24:40;;;;;;;19.53;11.07;;;;;;;;;;4944808;29;20980;-78
2023/03/06 06:27:07;;;;;;;22.73;9.30;;;;;;;;;;4953505;29;20484;-79
2023/03/06 06:29:34;;;;;;;23.60;10.93;;;;;;;;;;4945018;29;20452;-79
2023/03/06 06:32:06;;;;;;;21.37;11.33;;;;;;;;;;4947129;29;20451;-81
2023/03/06 06:34:33;;;;;;;27.23;9.10;;;;;;;;;;4944727;29;20542;-73
2023/03/06 06:37:00;;;;;;;24.47;10.67;;;;;;;;;;4940033;29;20453;-72
2023/03/06 06:39:29;;;;;;;25.93;13.17;;;;;;;;;;4945741;28;20478;-74
2023/03/06 06:41:56;;;;;;;23.07;10.00;;;;;;;;;;4947859;29;20442;-75
2023/03/06 06:44:23;;;;;;;20.17;8.97;;;;;;;;;;4947206;29;20478;-73
2023/03/06 06:46:50;;;;;;;21.43;10.30;;;;;;;;;;4946824;29;20927;-73
2023/03/06 06:49:17;;;;;;;22.10;10.17;;;;;;;;;;4948341;29;20547;-75
2023/03/06 06:51:45;;;;;;;18.53;9.37;;;;;;;;;;4951047;29;20540;-73
2023/03/06 06:54:12;;;;;;;21.67;10.40;;;;;;;;;;4947868;29;20584;-74
2023/03/06 06:56:41;;;;;;;20.57;9.70;;;;;;;;;;4947832;29;20466;-74
2023/03/06 06:59:08;;;;;;;22.73;9.27;;;;;;;;;;4947848;29;20466;-78
2023/03/06 07:01:35;;;;;;;23.10;10.20;;;;;;;;;;4945076;29;20521;-73
2023/03/06 07:04:02;;;;;;;16.33;8.73;;;;;;;;;;4944540;29;20447;-72
2023/03/06 07:06:29;;;;;;;18.90;10.13;;;;;;;;;;4943117;29;20604;-72
2023/03/06 07:08:56;;;;;;;17.53;9.03;;;;;;;;;;4951112;29;20465;-72
2023/03/06 07:11:23;;;;;;;19.03;9.60;;;;;;;;;;4949273;29;20452;-73
2023/03/06 07:13:52;;;;;;;26.63;10.30;;;;;;;;;;4943590;29;20491;-77
2023/03/06 07:16:19;;;;;;;26.80;9.70;;;;;;;;;;4946436;29;20811;-76
2023/03/06 07:18:46;;;;;;;18.83;10.80;;;;;;;;;;4945129;29;20989;-77
2023/03/06 07:21:13;;;;;;;21.53;9.67;;;;;;;;;;4950183;29;20497;-76
2023/03/06 07:23:41;;;;;;;21.80;9.23;;;;;;;;;;4956182;29;20446;-77
2023/03/06 07:26:08;;;;;;;18.70;9.30;;;;;;;;;;4960846;29;21012;-79
2023/03/06 07:28:35;;;;;;;15.50;8.77;;;;;;;;;;4949661;29;20470;-78
2023/03/06 07:31:08;;;;;;;18.53;8.80;;;;;;;;;;4942461;29;20452;-78
2023/03/06 07:33:35;;;;;;;21.93;9.83;;;;;;;;;;4961616;29;20473;-80
2023/03/06 07:36:02;;;;;;;20.13;9.77;;;;;;;;;;4960360;28;20470;-76
2023/03/06 07:38:29;;;;;;;17.63;10.13;;;;;;;;;;4960894;29;20458;-80
2023/03/06 07:40:56;;;;;;;21.70;10.83;;;;;;;;;;4959767;29;20541;-79
2023/03/06 07:43:23;;;;;;;16.27;9.93;;;;;;;;;;4958976;29;20470;-79
2023/03/06 07:45:56;;;;;;;18.63;9.90;;;;;;;;;;4959328;29;20922;-79
2023/03/06 07:48:25;;;;;;;23.20;8.90;;;;;;;;;;4959180;29;20525;-81
2023/03/06 07:50:56;;;;;;;24.40;9.10;;;;;;;;;;4957197;28;20470;-80
2023/03/06 07:53:24;;;;;;;17.97;9.60;;;;;;;;;;4953663;29;20501;-79
2023/03/06 07:55:51;;;;;;;17.67;8.10;;;;;;;;;;4955124;28;21015;-79
2023/03/06 07:58:18;;;;;;;19.87;10.50;;;;;;;;;;4936259;29;20497;-75
2023/03/06 08:00:46;;;;;;;16.83;8.70;;;;;;;;;;4940120;29;20465;-75
2023/03/06 08:03:13;;;;;;;17.90;8.13;;;;;;;;;;4954020;29;20450;-74
2023/03/06 08:05:42;;;;;;;21.20;9.90;;;;;;;;;;4952791;29;20521;-72
2023/03/06 08:08:09;;;;;;;33.53;13.00;;;;;;;;;;4951042;29;20459;-72
2023/03/06 08:10:37;;;;;;;16.23;10.50;;;;;;;;;;4954459;28;20865;-78
2023/03/06 08:13:04;;;;;;;21.40;11.20;;;;;;;;;;4954054;29;20497;-74
2023/03/06 08:15:31;;;;;;;28.97;11.53;;;;;;;;;;4947091;29;20685;-72
2023/03/06 08:17:58;;;;;;;19.17;9.23;;;;;;;;;;4934783;29;20472;-75
2023/03/06 08:20:25;;;;;;;21.60;10.20;;;;;;;;;;4934058;29;20483;-73
2023/03/06 08:22:54;;;;;;;18.70;11.03;;;;;;;;;;4943661;29;20463;-73
2023/03/06 08:25:23;;;;;;;21.60;10.90;;;;;;;;;;4948517;28;20491;-74
2023/03/06 08:27:50;;;;;;;29.40;13.10;;;;;;;;;;4953546;29;20459;-74
2023/03/06 08:30:18;;;;;;;23.60;12.10;;;;;;;;;;4953461;29;20475;-72
2023/03/06 08:32:45;;;;;;;18.27;11.27;;;;;;;;;;4953103;29;20458;-76
2023/03/06 08:35:13;;;;;;;18.60;11.40;;;;;;;;;;4952944;29;20467;-74
2023/03/06 08:37:40;;;;;;;24.50;11.37;;;;;;;;;;4953002;29;20469;-75
2023/03/06 08:40:12;;;;;;;25.00;13.50;;;;;;;;;;4953451;29;20534;-81
2023/03/06 08:42:40;;;;;;;21.50;10.87;;;;;;;;;;4951435;29;20511;-73
2023/03/06 08:45:08;;;;;;;24.30;11.00;;;;;;;;;;4953467;29;20566;-75
2023/03/06 08:47:35;;;;;;;17.17;9.37;;;;;;;;;;4954200;29;20521;-74
2023/03/06 08:50:02;;;;;;;20.00;11.17;;;;;;;;;;4954414;29;20482;-74
2023/03/06 08:52:29;;;;;;;22.87;10.57;;;;;;;;;;4953491;29;20464;-72
2023/03/06 08:55:01;;;;;;;20.43;12.37;;;;;;;;;;4950751;29;20507;-73
2023/03/06 08:57:29;;;;;;;21.00;10.70;;;;;;;;;;4952815;29;20459;-79
2023/03/06 08:59:56;;;;;;;20.03;10.30;;;;;;;;;;4954387;29;20822;-78
2023/03/06 09:02:24;;;;;;;17.80;10.60;;;;;;;;;;4953077;28;20439;-73
2023/03/06 09:04:51;;;;;;;21.20;12.13;;;;;;;;;;4952645;29;20464;-71
2023/03/06 09:07:18;;;;;;;21.43;10.83;;;;;;;;;;4953032;29;20918;-78
2023/03/06 09:09:45;;;;;;;22.17;12.43;;;;;;;;;;4946001;29;20804;-71
2023/03/06 09:12:12;;;;;;;25.50;12.30;;;;;;;;;;4946388;29;20459;-72
2023/03/06 09:14:41;;;;;;;20.63;13.90;;;;;;;;;;4947258;29;20454;-74
2023/03/06 09:17:08;;;;;;;24.50;13.57;;;;;;;;;;4952146;29;21167;-72
2023/03/06 09:19:36;;;;;;;23.37;11.70;;;;;;;;;;4952769;29;20552;-75
2023/03/06 09:22:03;;;;;;;19.37;11.87;;;;;;;;;;4955775;29;20478;-81
2023/03/06 09:24:30;;;;;;;22.83;13.80;;;;;;;;;;4958162;29;20998;-76
2023/03/06 09:26:57;;;;;;;21.97;12.10;;;;;;;;;;4957037;29;20505;-76
2023/03/06 09:29:25;;;;;;;20.57;10.83;;;;;;;;;;4955057;29;20484;-73
2023/03/06 09:31:53;;;;;;;22.43;11.77;;;;;;;;;;4953502;29;20895;-72
2023/03/06 09:34:21;;;;;;;24.03;13.67;;;;;;;;;;4953110;29;20514;-74
2023/03/06 09:36:48;;;;;;;26.53;13.10;;;;;;;;;;4953058;29;20455;-73
2023/03/06 09:39:15;;;;;;;30.00;11.97;;;;;;;;;;4951751;29;20463;-74
2023/03/06 09:41:43;;;;;;;27.70;13.40;;;;;;;;;;4946142;29;20459;-72
2023/03/06 09:44:13;;;;;;;21.90;13.27;;;;;;;;;;4940780;29;20528;-72
2023/03/06 09:46:47;;;;;;;22.20;11.60;;;;;;;;;;4944216;29;20497;-72
2023/03/06 09:49:29;;;;;;;24.03;11.67;;;;;;;;;;4942685;29;20439;-72
2023/03/06 09:52:00;;;;;;;25.20;13.43;;;;;;;;;;4942983;29;20547;-71
2023/03/06 09:54:34;;;;;;;21.80;11.07;;;;;;;;;;4949456;28;20455;-72
2023/03/06 09:57:01;;;;;;;20.70;12.57;;;;;;;;;;4950794;28;20482;-72
2023/03/06 09:59:29;;;;;;;19.70;9.80;;;;;;;;;;4949637;29;20462;-72
2023/03/06 10:02:00;;;;;;;19.43;10.60;;;;;;;;;;4951522;28;20555;-76
2023/03/06 10:04:38;;;;;;;22.70;12.00;;;;;;;;;;4950370;29;20471;-76
2023/03/06 10:07:11;;;;;;;22.50;12.00;;;;;;;;;;4950787;28;20486;-77
2023/03/06 10:09:41;;;;;;;24.30;9.77;;;;;;;;;;4953633;28;20800;-77
2023/03/06 10:12:17;;;;;;;18.93;10.93;;;;;;;;;;4953889;28;20535;-77
2023/03/06 10:14:45;;;;;;;22.03;12.43;;;;;;;;;;4948885;28;20483;-77
2023/03/06 10:17:16;;;;;;;25.27;13.17;;;;;;;;;;4943071;29;20922;-76
2023/03/06 10:19:46;;;;;;;19.90;10.03;;;;;;;;;;4940886;29;20503;-76
2023/03/06 10:22:20;;;;;;;25.13;11.00;;;;;;;;;;4936512;29;20543;-77
2023/03/06 10:24:50;;;;;;;17.10;11.57;;;;;;;;;;4953007;29;20470;-77
2023/03/06 10:27:22;;;;;;;18.70;11.33;;;;;;;;;;4961555;29;20562;-80
2023/03/06 10:29:52;;;;;;;21.83;9.93;;;;;;;;;;4958386;29;20494;-80
2023/03/06 10:32:25;;;;;;;16.53;11.30;;;;;;;;;;4957163;29;20451;-80
2023/03/06 10:34:54;;;;;;;25.50;11.83;;;;;;;;;;4957675;29;21044;-79
2023/03/06 10:37:22;;;;;;;18.17;9.63;;;;;;;;;;4966373;29;20503;-79
2023/03/06 10:39:53;;;;;;;19.27;10.20;;;;;;;;;;4962533;29;20507;-79
2023/03/06 10:42:20;;;;;;;19.50;10.73;;;;;;;;;;4959190;29;20458;-76
2023/03/06 10:44:47;;;;;;;23.07;10.37;;;;;;;;;;4944384;29;20450;-77
2023/03/06 10:47:36;;;;;;;20.20;9.50;;;;;;;;;;4941344;29;21330;-79
2023/03/06 10:50:06;;;;;;;20.77;11.07;;;;;;;;;;4937935;29;20888;-77
2023/03/06 10:52:34;;;;;;;20.80;9.83;;;;;;;;;;4945083;29;20470;-77
2023/03/06 10:55:14;;;;;;;21.20;10.23;;;;;;;;;;4939945;29;20439;-80
2023/03/06 10:57:41;;;;;;;18.30;10.47;;;;;;;;;;4942841;29;20458;-77
2023/03/06 11:00:23;;;;;;;18.87;10.50;;;;;;;;;;4940392;29;20953;-77
2023/03/06 11:03:06;;;;;;;20.70;10.10;;;;;;;;;;4941969;29;20455;-77
2023/03/06 11:05:34;;;;;;;22.47;12.37;;;;;;;;;;4940033;29;20452;-78
2023/03/06 11:08:02;;;;;;;18.40;9.83;;;;;;;;;;4946069;29;20574;-78
2023/03/06 11:10:34;;;;;;;20.30;11.40;;;;;;;;;;4948295;29;20458;-79
2023/03/06 11:13:05;;;;;;;21.17;11.57;;;;;;;;;;4961302;29;20457;-79
2023/03/06 11:15:32;;;;;;;21.47;12.50;;;;;;;;;;4962453;28;20470;-78
2023/03/06 11:18:01;;;;;;;22.00;11.93;;;;;;;;;;4950753;29;20447;-79
2023/03/06 11:20:30;;;;;;;14.80;9.23;;;;;;;;;;4938874;29;20478;-72
2023/03/06 11:23:02;;;;;;;20.07;11.73;;;;;;;;;;4937951;29;20428;-71
2023/03/06 11:25:33;;;;;;;19.47;11.23;;;;;;;;;;4939289;28;20849;-72
2023/03/06 11:28:02;;;;;;;22.47;10.50;;;;;;;;;;4940664;29;20820;-73
2023/03/06 11:30:33;;;;;;;23.83;11.90;;;;;;;;;;4943013;29;20531;-72
2023/03/06 11:33:01;;;;;;;16.50;8.53;;;;;;;;;;4941742;29;20462;-72
2023/03/06 11:35:34;;;;;;;18.77;9.60;;;;;;;;;;4942969;29;21128;-72
2023/03/06 11:38:06;;;;;;;18.87;10.47;;;;;;;;;;4942490;29;20523;-72
2023/03/06 11:40:40;;;;;;;22.00;12.70;;;;;;;;;;4943159;29;20450;-70
2023/03/06 11:43:15;;;;;;;16.90;9.57;;;;;;;;;;4941138;29;20467;-77
2023/03/06 11:45:44;;;;;;;22.03;12.63;;;;;;;;;;4948273;29;20523;-70
2023/03/06 11:48:19;;;;;;;20.43;11.00;;;;;;;;;;4942153;29;20574;-70
2023/03/06 11:50:48;;;;;;;19.03;12.37;;;;;;;;;;4990648;23;20509;-79
2023/03/06 11:53:19;;;;;;;19.90;11.23;;;;;;;;;;5351827;23;20489;-80
2023/03/06 11:55:53;;;;;;;18.63;11.43;;;;;;;;;;4951536;29;20454;-81
2023/03/06 11:58:35;;;;;;;20.10;12.20;;;;;;;;;;4957340;29;20473;-79
2023/03/06 12:01:05;;;;;;;18.63;10.10;;;;;;;;;;4953392;29;20505;-80
2023/03/06 12:03:50;;;;;;;18.60;9.93;;;;;;;;;;4951418;29;20452;-79
2023/03/06 12:06:22;;;;;;;19.93;10.07;;;;;;;;;;4963281;28;20449;-80
2023/03/06 12:08:57;;;;;;;24.83;12.10;;;;;;;;;;4978935;29;20529;-79
2023/03/06 12:22:44;;;;;;;20.40;10.10;;;;;;;;;;5779058;23;20554;-80
2023/03/06 12:25:24;;;;;;;23.93;12.97;;;;;;;;;;4954354;29;20451;-76
2023/03/06 12:27:54;;;;;;;26.67;12.27;;;;;;;;;;4931355;29;20492;-77
2023/03/06 12:30:37;;;;;;;18.50;10.63;;;;;;;;;;4936325;29;20452;-77
2023/03/06 12:33:08;;;;;;;22.77;13.87;;;;;;;;;;4938291;29;20462;-77
2023/03/06 12:35:50;;;;;;;23.70;12.47;;;;;;;;;;4948514;29;20471;-77
2023/03/06 12:38:26;;;;;;;20.43;11.77;;;;;;;;;;4934584;29;20547;-77
2023/03/06 12:41:00;;;;;;;21.13;11.27;;;;;;;;;;4937088;29;20477;-77
2023/03/06 12:43:40;;;;;;;21.43;11.53;;;;;;;;;;4953268;29;20465;-76
2023/03/06 12:46:10;;;;;;;23.27;12.00;;;;;;;;;;4953722;29;20464;-77
2023/03/06 12:48:39;;;;;;;24.23;11.80;;;;;;;;;;4954355;29;20470;-77
2023/03/06 12:51:08;;;;;;;25.97;12.50;;;;;;;;;;4955186;29;20461;-77
2023/03/06 12:53:36;;;;;;;19.57;11.10;;;;;;;;;;4956795;29;20451;-77
2023/03/06 12:56:05;;;;;;;21.80;10.63;;;;;;;;;;4955452;29;20555;-78
2023/03/06 12:58:36;;;;;;;20.33;11.10;;;;;;;;;;4956741;29;20615;-80
2023/03/06 13:01:06;;;;;;;22.30;12.00;;;;;;;;;;4967354;29;20506;-79
2023/03/06 13:03:55;;;;;;;19.73;10.53;;;;;;;;;;4968667;29;20423;-79
2023/03/06 13:09:04;;;;;;;16.33;10.83;;;;;;;;;;5327303;23;20498;-79
2023/03/06 13:11:54;;;;;;;23.50;11.63;;;;;;;;;;4954292;29;20465;-78
2023/03/06 13:14:26;;;;;;;24.13;12.80;;;;;;;;;;4949815;29;20511;-81
2023/03/06 13:17:17;;;;;;;14.77;10.33;;;;;;;;;;4960615;29;20447;-81
2023/03/06 13:19:49;;;;;;;18.93;9.77;;;;;;;;;;4959975;29;20472;-81
2023/03/06 13:22:26;;;;;;;22.60;12.03;;;;;;;;;;4960791;29;20482;-82
2023/03/06 13:25:08;;;;;;;24.23;10.77;;;;;;;;;;4960531;29;20438;-82
2023/03/06 13:27:47;;;;;;;22.30;11.97;;;;;;;;;;4935925;29;20542;-78
2023/03/06 13:40:41;;;;;;;23.10;11.77;;;;;;;;;;5468866;23;20475;-78
2023/03/06 13:43:22;;;;;;;18.70;11.57;;;;;;;;;;4976238;28;20454;-82
2023/03/06 13:45:52;;;;;;;21.80;10.43;;;;;;;;;;4959041;29;20459;-80
2023/03/06 13:48:34;;;;;;;19.60;9.73;;;;;;;;;;4957930;29;20476;-81
2023/03/06 13:51:14;;;;;;;19.50;10.53;;;;;;;;;;4971033;29;20488;-82
2023/03/06 13:53:48;;;;;;;22.67;12.60;;;;;;;;;;4977496;29;20443;-82
2023/03/06 13:56:32;;;;;;;21.83;10.93;;;;;;;;;;4977531;28;20438;-81
2023/03/06 13:59:11;;;;;;;19.67;10.83;;;;;;;;;;4968675;29;20438;-82
2023/03/06 14:01:48;;;;;;;22.47;11.80;;;;;;;;;;4977576;29;20469;-80
2023/03/06 14:04:34;;;;;;;17.00;9.30;;;;;;;;;;4977106;29;20434;-81
2023/03/06 14:07:04;;;;;;;19.00;10.80;;;;;;;;;;4976397;29;20517;-83
2023/03/06 14:09:33;;;;;;;18.57;10.03;;;;;;;;;;4974199;28;20467;-78
2023/03/06 14:17:19;;;;;;;19.10;10.00;;;;;;;;;;5442538;23;20489;-79
2023/03/06 14:32:45;;;;;;;21.33;12.33;;;;;;;;;;4957885;29;20517;-79
2023/03/06 14:35:23;;;;;;;19.83;11.70;;;;;;;;;;4958710;29;20474;-80
2023/03/06 14:37:52;;;;;;;25.83;15.17;;;;;;;;;;4959425;29;20431;-80
2023/03/06 14:40:21;;;;;;;17.13;10.70;;;;;;;;;;4959698;29;20440;-79
2023/03/06 14:45:31;;;;;;;23.83;12.13;;;;;;;;;;5365320;23;20505;-80
2023/03/06 14:53:17;;;;;;;20.27;12.00;;;;;;;;;;4935889;29;20513;-76
2023/03/06 14:55:49;;;;;;;23.90;11.43;;;;;;;;;;4932414;29;20511;-78
2023/03/06 14:58:17;;;;;;;17.43;8.50;;;;;;;;;;4920329;29;20464;-76
2023/03/06 15:19:49;;;;;;;14.53;11.10;;;;;;;;;;5974406;23;20442;-80
2023/03/06 15:22:25;;;;;;;22.50;9.77;;;;;;;;;;4897514;29;20512;-79
2023/03/06 15:24:53;;;;;;;17.50;11.17;;;;;;;;;;4899495;29;21031;-80
2023/03/06 15:27:21;;;;;;;20.10;10.00;;;;;;;;;;4897737;29;20485;-78
2023/03/06 15:29:48;;;;;;;18.53;10.13;;;;;;;;;;4898670;29;20484;-78
2023/03/06 15:32:28;;;;;;;13.70;9.50;;;;;;;;;;4907232;29;20468;-78
2023/03/06 15:35:13;;;;;;;16.57;9.27;;;;;;;;;;4898923;29;20461;-80
2023/03/06 15:37:42;;;;;;;18.40;9.80;;;;;;;;;;4897975;29;20468;-79
2023/03/06 15:40:18;;;;;;;16.53;10.00;;;;;;;;;;4898850;29;20461;-79
2023/03/06 15:42:45;;;;;;;22.00;11.17;;;;;;;;;;4897817;29;20548;-79
2023/03/06 15:50:19;;;;;;;17.93;9.47;;;;;;;;;;4917970;29;20481;-79
2023/03/06 15:52:48;;;;;;;13.80;8.73;;;;;;;;;;4906192;29;20472;-79
2023/03/06 15:55:16;;;;;;;17.87;11.00;;;;;;;;;;4904834;29;20510;-78
2023/03/06 15:57:48;;;;;;;20.50;9.67;;;;;;;;;;4902200;29;20451;-77
2023/03/06 16:00:18;;;;;;;17.50;10.20;;;;;;;;;;4896600;29;20470;-78
2023/03/06 16:02:49;;;;;;;14.57;8.07;;;;;;;;;;4902204;29;20955;-79
2023/03/06 16:05:17;;;;;;;12.67;8.00;;;;;;;;;;4898754;29;20456;-79